Terminal Aerodrome Forecast
Issued by NWS

Home | Current Version | Previous Version | Text Only | Print | Product List | Glossary Off
Versions: 1 2 3 4 5 6 7 8 9 10 11 12 13 14 15 16 17

000
FTUS41 KCLE 142337
TAFFDY
TAF
KFDY 142337Z 1500/1524 17007KT P6SM BKN110
     FM150400 19011KT P6SM SCT200 WS020/21040KT
     FM150800 21015G25KT P6SM BKN030 BKN070
     FM151300 22020G30KT P6SM VCSH BKN025 OVC035
     FM151500 23025G35KT 4SM -SHRA OVC025
     FM151700 26025G35KT P6SM OVC025
     FM152300 30017G30KT P6SM BKN035=

USA.gov is the U.S. government's official web portal to all federal, state and local government web resources and services.